Airfield :
LOGIN :

Register | Disclaimer

   EN    FR    IT 

 










Legend :    VFR   Marginal VFR   IFR   Intensive IFR   Very Intensive IFR
Visi :
Ceiling :
>= 8 km
>= 3000ft
5 to 8 km
1000 to 3000 ft
1500m to 5 km
500 to 1000 ft
800 to 1500m
200 to 500 ft
< 800m
< 200 ft
Symbols :   Thunderstorms  Fog  Heavy snow  Heavy precipitations  Wind > 20 kt
SIGMETs :     Misc.  Thunderstorms  Icing  Turbulence  Mountain Waves  Volcanic Ashes







- Airport Elevation : 913 ft
- Download approach charts


LFSX - Luxeuil

CURRENT METAR :
  • 280330Z AUTO 22008KT 9999 OVC012/// 17/16 Q1003 TEMPO VRB17G27KT 1500 TSRA BKN009 BKN040CB

EXPIRED METARs :
  • 280300Z AUTO 22005KT 180V250 9999 OVC013/// 17/16 Q1003 TEMPO VRB17G27KT 1500 TSRA BKN009 BKN040CB
  • 280230Z AUTO 22007KT 9999 SCT015/// SCT030/// BKN043/// 17/16 Q1003 TEMPO VRB17G27KT 1500 TSRA BKN009 BKN040CB
  • 280200Z AUTO 21007KT 170V240 9999 -RA BKN013/// BKN036/// BKN044/// 17/16 Q1003
  • 280130Z AUTO 17004KT 130V200 9999 FEW009/// SCT028/// BKN034/// 18/17 Q1003
  • 280100Z AUTO 17003KT 9999 FEW013/// BKN027/// BKN100/// 18/17 Q1003

TAF TAF LFSX
Valid from the 28 at 03:00 until the 29 at 03:00 UTC


280200Z 2803/2903 21012KT 4900 RA BKN014
TEMPO 2803/2809 3000 SHRA BKN009 BKN040CB
PROB40
TEMPO 2803/2806 VRB17G27KT 1500 TSRA
BECMG 2809/2811 9999 NSW FEW015 SCT035
PROB40
TEMPO 2814/2818 4000 SHRA SCT050TCU
BECMG 2819/2821 BKN013
No reported NOTAMs for that airfield.



MET'MAP, your aeronautical weather chart ! - Copyright ORBIFLY December 2007 - Disclaimer

ORBIFLY MET'MAP TEAM :

Programming & Development : Alexandra Zaïnal
Concept & Development : Baudouin d'Aumeries
Co-Development & Prog : Marc-Olivier Méhu
Technical & hardware support : Manuel Goepfert

Contact : metmap@orbifly.com




SOURCES & CREDITS :

   NOAA